createdAt,value
2022-11-29T00:00:52.482Z,98147.00
2022-11-29T00:05:54.564Z,98148.75
2022-11-29T00:10:56.385Z,98151.19
2022-11-29T00:16:03.344Z,98145.00
2022-11-29T00:21:09.412Z,98145.66
2022-11-29T00:26:11.408Z,98141.22
2022-11-29T00:31:22.353Z,98136.88
2022-11-29T00:36:24.662Z,98134.88
2022-11-29T00:41:26.660Z,98139.50
2022-11-29T00:46:31.444Z,98141.94
2022-11-29T00:51:33.214Z,98144.09
2022-11-29T00:56:35.205Z,98146.28
2022-11-29T01:01:37.271Z,98140.59
2022-11-29T01:06:39.474Z,98142.75
2022-11-29T01:11:41.427Z,98148.47
2022-11-29T01:16:43.255Z,98139.78
2022-11-29T01:21:45.159Z,98138.03
2022-11-29T01:26:47.092Z,98147.50
2022-11-29T01:31:48.937Z,98146.56
2022-11-29T01:36:50.720Z,98143.88
2022-11-29T01:41:52.679Z,98153.88
2022-11-29T01:46:56.304Z,98148.75
2022-11-29T01:52:00.795Z,98146.03
2022-11-29T01:57:06.806Z,98150.09
2022-11-29T02:02:38.492Z,98148.34
2022-11-29T02:07:43.388Z,98152.69
2022-11-29T02:13:12.670Z,98152.53
2022-11-29T02:18:34.510Z,98152.53
2022-11-29T02:24:00.609Z,98159.44
2022-11-29T02:29:05.514Z,98162.28
2022-11-29T02:34:07.409Z,98162.41
2022-11-29T02:39:30.537Z,98163.38
2022-11-29T02:44:51.036Z,98163.50
2022-11-29T02:50:19.386Z,98164.72
2022-11-29T02:55:29.922Z,98170.94
2022-11-29T03:00:40.021Z,98172.13
2022-11-29T03:05:51.058Z,98177.69
2022-11-29T03:10:58.695Z,98183.13
2022-11-29T03:16:11.706Z,98179.84
2022-11-29T03:21:34.873Z,98192.72
2022-11-29T03:26:44.448Z,98195.56
2022-11-29T03:32:04.019Z,98193.91
2022-11-29T03:37:13.390Z,98199.88
2022-11-29T03:42:21.703Z,98198.00
2022-11-29T03:47:28.966Z,98204.63
2022-11-29T03:52:51.183Z,98206.25
2022-11-29T03:58:09.783Z,98202.06
2022-11-29T04:03:48.012Z,98203.69
2022-11-29T04:09:08.593Z,98199.19
2022-11-29T04:14:33.696Z,98204.63
2022-11-29T04:20:02.655Z,98213.44
2022-11-29T04:25:16.211Z,98210.44
2022-11-29T04:30:25.283Z,98211.50
2022-11-29T04:35:51.863Z,98215.00
2022-11-29T04:41:02.387Z,98217.59
2022-11-29T04:46:31.847Z,98223.53
2022-11-29T04:51:49.748Z,98227.19
2022-11-29T04:57:00.751Z,98227.19
2022-11-29T05:02:10.310Z,98230.44
2022-11-29T05:07:28.051Z,98232.06
2022-11-29T05:12:39.284Z,98229.63
2022-11-29T05:18:00.424Z,98246.94
2022-11-29T05:23:08.190Z,98245.31
2022-11-29T05:28:30.082Z,98254.53
2022-11-29T05:33:34.671Z,98252.91
2022-11-29T05:39:07.968Z,98252.91
2022-11-29T05:44:19.871Z,98253.97
2022-11-29T05:49:39.905Z,98255.84
2022-11-29T05:55:05.795Z,98250.97
2022-11-29T06:00:10.898Z,98261.25
2022-11-29T06:05:31.011Z,98258.81
2022-11-29T06:10:40.212Z,98263.28
2022-11-29T06:16:09.755Z,98270.97
2022-11-29T06:21:41.504Z,98278.13
2022-11-29T06:26:55.156Z,98284.22
2022-11-29T06:32:44.956Z,98291.00
2022-11-29T06:37:51.390Z,98294.50
2022-11-29T06:42:53.215Z,98299.66
2022-11-29T06:48:02.679Z,98303.16
2022-11-29T06:53:23.999Z,98298.13
2022-11-29T06:58:53.405Z,98309.25
2022-11-29T07:04:05.659Z,98303.16
2022-11-29T07:09:17.778Z,98313.44
2022-11-29T07:14:20.026Z,98321.28
2022-11-29T07:19:30.649Z,98318.59
2022-11-29T07:24:38.978Z,98327.00
2022-11-29T07:29:49.875Z,98332.00
2022-11-29T07:35:00.664Z,98334.56
2022-11-29T07:40:23.127Z,98335.25
2022-11-29T07:45:32.839Z,98343.09
2022-11-29T07:50:36.032Z,98342.16
2022-11-29T07:55:37.902Z,98346.25
2022-11-29T08:00:40.547Z,98349.50
2022-11-29T08:05:47.467Z,98350.19
2022-11-29T08:10:49.462Z,98353.34
2022-11-29T08:15:51.316Z,98350.38
2022-11-29T08:20:53.233Z,98359.34
2022-11-29T08:26:00.436Z,98361.56
2022-11-29T08:31:07.825Z,98357.34
2022-11-29T08:36:16.358Z,98366.56
2022-11-29T08:41:18.579Z,98368.03
2022-11-29T08:46:20.630Z,98369.41
2022-11-29T08:51:22.515Z,98373.63
2022-11-29T08:57:09.983Z,98373.38
2022-11-29T09:01:46.604Z,98377.56
2022-11-29T09:06:51.436Z,98382.72
2022-11-29T09:11:53.353Z,98391.25
2022-11-29T09:16:55.196Z,98393.56
2022-11-29T09:21:57.178Z,98395.78
2022-11-29T09:27:00.120Z,98393.63
2022-11-29T09:32:02.085Z,98393.13
2022-11-29T09:37:05.783Z,98396.38
2022-11-29T09:42:29.505Z,98404.41
2022-11-29T09:48:14.287Z,98407.56
2022-11-29T09:53:33.079Z,98404.84
2022-11-29T09:58:47.293Z,98403.66
2022-11-29T10:03:53.055Z,98403.53
2022-11-29T10:09:21.133Z,98406.91
2022-11-29T10:14:30.169Z,98406.78
2022-11-29T10:19:41.224Z,98406.53
2022-11-29T10:24:49.898Z,98408.03
2022-11-29T10:29:52.185Z,98400.59
2022-11-29T10:34:53.938Z,98405.28
2022-11-29T10:40:04.328Z,98400.94
2022-11-29T10:45:34.343Z,98403.50
2022-11-29T10:50:37.634Z,98408.53
2022-11-29T10:55:59.052Z,98416.00
2022-11-29T11:01:08.662Z,98412.34
2022-11-29T11:06:13.680Z,98418.31
2022-11-29T11:11:28.482Z,98408.16
2022-11-29T11:16:35.719Z,98409.91
2022-11-29T11:21:39.696Z,98421.56
2022-11-29T11:26:44.419Z,98416.97
2022-11-29T11:31:57.185Z,98422.13
2022-11-29T11:37:23.140Z,98423.06
2022-11-29T11:42:39.595Z,98416.97
2022-11-29T11:47:44.467Z,98421.19
2022-11-29T11:52:54.059Z,98421.75
2022-11-29T11:58:10.193Z,98422.44
2022-11-29T12:03:39.996Z,98418.91
2022-11-29T12:08:43.737Z,98437.50
2022-11-29T12:13:51.054Z,98432.91
2022-11-29T12:19:17.276Z,98437.66
2022-11-29T12:24:24.904Z,98434.94
2022-11-29T12:29:33.372Z,98437.28
2022-11-29T12:35:02.212Z,98443.38
2022-11-29T12:40:45.594Z,98446.88
2022-11-29T12:46:06.220Z,98445.00
2022-11-29T12:51:28.535Z,98449.22
2022-11-29T12:56:58.650Z,98453.69
2022-11-29T13:02:24.269Z,98450.53
2022-11-29T13:07:38.395Z,98460.97
2022-11-29T13:12:45.202Z,98464.50
2022-11-29T13:18:04.185Z,98457.72
2022-11-29T13:23:14.862Z,98460.56
2022-11-29T13:28:29.826Z,98459.88
2022-11-29T13:33:34.202Z,98464.47
2022-11-29T13:38:38.681Z,98478.28
2022-11-29T13:43:55.593Z,98478.41
2022-11-29T13:48:57.584Z,98482.88
2022-11-29T13:54:06.820Z,98485.84
2022-11-29T13:59:15.423Z,98486.91
2022-11-29T14:04:23.464Z,98488.81
2022-11-29T14:09:34.818Z,98489.06
2022-11-29T14:14:57.210Z,98495.16
2022-11-29T14:20:24.912Z,98498.00
2022-11-29T14:25:50.578Z,98498.34
2022-11-29T14:30:54.231Z,98502.66
2022-11-29T14:36:07.714Z,98502.91
2022-11-29T14:41:21.531Z,98494.50
2022-11-29T14:46:29.676Z,98500.72
2022-11-29T14:51:34.431Z,98510.34
2022-11-29T14:56:47.473Z,98506.94
2022-11-29T15:01:50.450Z,98516.56
2022-11-29T15:06:57.044Z,98521.81
2022-11-29T15:12:10.323Z,98521.13
2022-11-29T15:17:50.323Z,98519.63
2022-11-29T15:22:55.709Z,98531.81
2022-11-29T15:27:58.698Z,98535.69
2022-11-29T15:33:03.676Z,98547.88
2022-11-29T15:38:05.589Z,98545.44
2022-11-29T15:43:26.651Z,98544.72
2022-11-29T15:48:33.929Z,98552.69
2022-11-29T15:53:41.651Z,98562.19
2022-11-29T15:58:46.319Z,98558.91
2022-11-29T16:03:53.660Z,98561.59
2022-11-29T16:08:56.030Z,98569.34
2022-11-29T16:14:05.395Z,98573.78
2022-11-29T16:19:18.867Z,98575.66
2022-11-29T16:24:21.903Z,98585.97
2022-11-29T16:29:33.475Z,98581.75
2022-11-29T16:34:35.403Z,98587.84
2022-11-29T16:39:39.049Z,98591.34
2022-11-29T16:44:40.908Z,98604.09
2022-11-29T16:49:42.755Z,98607.47
2022-11-29T16:54:44.793Z,98601.41
2022-11-29T16:59:47.400Z,98600.00
2022-11-29T17:04:51.338Z,98609.47
2022-11-29T17:09:53.928Z,98612.19
2022-11-29T17:14:56.146Z,98617.56
2022-11-29T17:19:57.958Z,98617.81
2022-11-29T17:25:00.763Z,98621.31
2022-11-29T17:30:03.568Z,98623.19
2022-11-29T17:35:05.798Z,98626.59
2022-11-29T17:40:08.515Z,98623.19
2022-11-29T17:45:10.766Z,98633.25
2022-11-29T17:50:12.824Z,98641.66
2022-11-29T17:55:19.193Z,98646.81
2022-11-29T18:00:22.823Z,98650.06
2022-11-29T18:05:26.248Z,98653.34
2022-11-29T18:10:30.698Z,98654.97
2022-11-29T18:15:35.740Z,98651.72
2022-11-29T18:20:37.605Z,98653.34
2022-11-29T18:25:40.093Z,98658.50
2022-11-29T18:30:42.347Z,98658.63
2022-11-29T18:35:44.353Z,98660.25
2022-11-29T18:40:46.279Z,98663.75
2022-11-29T18:45:48.240Z,98657.69
2022-11-29T18:50:50.285Z,98667.63
2022-11-29T18:56:10.330Z,98663.41
2022-11-29T19:01:18.726Z,98660.94
2022-11-29T19:06:26.353Z,98667.84
2022-11-29T19:11:30.483Z,98672.31
2022-11-29T19:16:34.852Z,98671.38
2022-11-29T19:21:37.868Z,98673.00
2022-11-29T19:26:39.887Z,98671.94
2022-11-29T19:31:42.772Z,98672.06
2022-11-29T19:36:45.477Z,98684.34
2022-11-29T19:41:48.159Z,98683.41
2022-11-29T19:46:50.255Z,98682.34
2022-11-29T19:51:52.433Z,98686.69
2022-11-29T19:56:55.869Z,98687.75
2022-11-29T20:01:58.058Z,98690.31
2022-11-29T20:07:02.752Z,98695.47
2022-11-29T20:12:04.665Z,98694.75
2022-11-29T20:17:06.752Z,98706.94
2022-11-29T20:22:08.501Z,98708.56
2022-11-29T20:27:10.436Z,98712.88
2022-11-29T20:32:12.337Z,98714.66
2022-11-29T20:37:39.179Z,98716.28
2022-11-29T20:42:49.747Z,98714.75
2022-11-29T20:48:13.183Z,98719.31
2022-11-29T20:53:34.419Z,98719.56
2022-11-29T20:58:36.619Z,98721.94
2022-11-29T21:03:38.447Z,98723.22
2022-11-29T21:08:40.276Z,98723.44
2022-11-29T21:13:42.386Z,98715.03
2022-11-29T21:18:44.469Z,98714.34
2022-11-29T21:24:06.764Z,98720.28
2022-11-29T21:29:20.320Z,98723.09
2022-11-29T21:34:22.558Z,98736.91
2022-11-29T21:39:34.908Z,98733.50
2022-11-29T21:44:36.682Z,98736.31
2022-11-29T21:49:39.354Z,98737.59
2022-11-29T21:54:41.316Z,98740.28
2022-11-29T21:59:43.255Z,98739.44
2022-11-29T22:04:45.839Z,98730.81
2022-11-29T22:09:48.927Z,98731.63
2022-11-29T22:14:50.707Z,98736.19
2022-11-29T22:19:52.501Z,98733.72
2022-11-29T22:24:54.240Z,98739.69
2022-11-29T22:29:56.085Z,98735.59
2022-11-29T22:34:57.908Z,98733.94
2022-11-29T22:39:59.600Z,98738.28
2022-11-29T22:45:03.887Z,98740.84
2022-11-29T22:50:06.305Z,98735.94
2022-11-29T22:55:08.706Z,98740.38
2022-11-29T23:00:11.456Z,98739.66
2022-11-29T23:05:13.303Z,98747.38
2022-11-29T23:10:15.322Z,98744.09
2022-11-29T23:15:17.072Z,98750.28
2022-11-29T23:20:18.830Z,98751.00
2022-11-29T23:25:20.653Z,98748.41
2022-11-29T23:30:22.390Z,98747.50
2022-11-29T23:35:24.163Z,98747.59
2022-11-29T23:40:25.935Z,98755.19
2022-11-29T23:45:28.022Z,98747.50
2022-11-29T23:50:29.989Z,98744.91
2022-11-29T23:55:31.850Z,98742.22
